Time;durP1;ratioP1;P1;durP2;ratioP2;P2;SDS_P1;SDS_P2;PMS_P1;PMS_P2;Temp;Humidity;BMP_temperature;BMP_pressure;BME280_temperature;BME280_humidity;BME280_pressure;Samples;Min_cycle;Max_cycle;Signal;HPM_P1;HPM_P2
2022/12/22 03:27:18;;;;;;;52.65;31.13;;;5.40;79.80;;;;;;4938391;29;20043;-15
2022/12/22 03:29:44;;;;;;;45.50;28.70;;;5.40;79.70;;;;;;4938320;29;20023;-18
2022/12/22 03:32:11;;;;;;;43.10;27.40;;;5.40;79.70;;;;;;4938259;29;20114;-18
2022/12/22 03:34:36;;;;;;;49.42;29.02;;;5.40;79.70;;;;;;4938225;29;20040;-15
2022/12/22 03:37:03;;;;;;;68.30;40.17;;;5.40;79.70;;;;;;4938068;29;20392;-17
2022/12/22 03:39:28;;;;;;;62.65;36.38;;;5.40;79.50;;;;;;4938130;29;20038;-16
2022/12/22 03:47:23;;;;;;;48.92;28.80;;;5.40;79.50;;;;;;4938161;29;20442;-15
2022/12/22 03:49:49;;;;;;;50.65;29.13;;;5.40;79.60;;;;;;4937983;29;20110;-17
2022/12/22 03:52:15;;;;;;;52.72;31.00;;;5.40;79.40;;;;;;4937683;29;20078;-17
2022/12/22 03:54:41;;;;;;;54.08;32.10;;;5.50;79.20;;;;;;4937767;29;20035;-17
2022/12/22 03:57:07;;;;;;;58.83;34.05;;;5.60;79.20;;;;;;4937928;29;20143;-18
2022/12/22 03:59:33;;;;;;;43.53;27.50;;;5.60;79.30;;;;;;4937206;29;20043;-17
2022/12/22 04:01:59;;;;;;;48.13;29.92;;;5.60;79.20;;;;;;4937477;29;20028;-15
2022/12/22 04:04:26;;;;;;;41.40;26.08;;;5.60;79.10;;;;;;4937434;29;20469;-15
2022/12/22 04:06:52;;;;;;;54.75;32.40;;;5.70;79.20;;;;;;4937496;29;20392;-13
2022/12/22 04:09:18;;;;;;;65.15;36.08;;;5.70;79.10;;;;;;4937553;29;20028;-16
2022/12/22 04:14:29;;;;;;;46.92;26.17;;;5.70;79.20;;;;;;4937847;29;20050;-15
2022/12/22 04:16:54;;;;;;;54.80;32.58;;;5.70;79.20;;;;;;4937176;29;20028;-15
2022/12/22 04:19:20;;;;;;;55.63;32.60;;;5.70;79.20;;;;;;4937808;29;20035;-15
2022/12/22 04:21:46;;;;;;;40.67;25.38;;;5.70;79.30;;;;;;4936988;29;20508;-16
2022/12/22 04:24:12;;;;;;;48.47;29.20;;;5.70;79.20;;;;;;4937468;29;20079;-14
2022/12/22 04:26:39;;;;;;;57.90;34.05;;;5.70;79.30;;;;;;4937019;29;20028;-17
2022/12/22 04:29:04;;;;;;;57.63;34.20;;;5.70;79.40;;;;;;4936783;29;20020;-15
2022/12/22 04:31:30;;;;;;;58.17;34.15;;;5.80;79.50;;;;;;4936990;29;20030;-15
2022/12/22 04:33:56;;;;;;;42.80;26.17;;;5.70;79.50;;;;;;4936921;29;20094;-15
2022/12/22 04:36:22;;;;;;;45.33;27.10;;;5.80;79.40;;;;;;4937196;29;20039;-16
2022/12/22 04:38:48;;;;;;;42.80;27.58;;;5.80;79.40;;;;;;4936707;29;20498;-16
2022/12/22 04:41:14;;;;;;;48.25;30.50;;;5.80;79.50;;;;;;4936865;29;20031;-16
2022/12/22 04:43:40;;;;;;;53.67;31.90;;;5.80;79.50;;;;;;4936694;29;20091;-17
2022/12/22 04:46:06;;;;;;;62.95;34.35;;;5.80;79.50;;;;;;4936706;29;20111;-16
2022/12/22 04:48:33;;;;;;;56.40;33.70;;;5.80;79.50;;;;;;4936951;29;20102;-17
2022/12/22 04:51:00;;;;;;;59.65;34.53;;;5.90;79.40;;;;;;4936698;29;20388;-16
2022/12/22 04:53:27;;;;;;;45.53;27.90;;;5.80;79.40;;;;;;4935583;29;20491;-16
2022/12/22 04:56:05;;;;;;;52.22;30.60;;;5.80;79.50;;;;;;4935742;29;20043;-17
2022/12/22 04:58:32;;;;;;;72.65;40.10;;;5.80;79.30;;;;;;4936596;29;20569;-16
2022/12/22 05:01:08;;;;;;;59.58;33.72;;;5.80;79.60;;;;;;4936500;29;20028;-17
2022/12/22 05:03:34;;;;;;;55.78;33.72;;;5.80;79.40;;;;;;4936669;29;20497;-18
2022/12/22 05:06:00;;;;;;;58.55;34.53;;;5.80;79.50;;;;;;4936659;29;20066;-17
2022/12/22 05:08:26;;;;;;;68.20;37.88;;;5.80;79.50;;;;;;4937105;29;20048;-17
2022/12/22 05:10:52;;;;;;;59.95;35.85;;;5.70;79.40;;;;;;4935435;29;20177;-18
2022/12/22 05:13:18;;;;;;;71.45;40.67;;;5.70;79.40;;;;;;4936079;29;20028;-16
2022/12/22 05:15:44;;;;;;;56.33;33.75;;;5.70;79.50;;;;;;4936589;29;20040;-16
2022/12/22 05:18:12;;;;;;;46.55;28.70;;;5.70;79.50;;;;;;4936426;29;20481;-16
2022/12/22 05:20:38;;;;;;;71.53;38.05;;;5.70;79.50;;;;;;4936423;29;20031;-17
2022/12/22 05:23:04;;;;;;;56.88;34.35;;;5.70;79.70;;;;;;4935617;29;20063;-17
2022/12/22 05:25:30;;;;;;;67.95;38.22;;;5.70;79.60;;;;;;4935380;29;20028;-18
2022/12/22 05:27:56;;;;;;;76.32;43.90;;;5.60;80.00;;;;;;4935979;29;20032;-17
2022/12/22 05:30:21;;;;;;;58.35;34.47;;;5.60;79.90;;;;;;4935924;29;20034;-14
2022/12/22 05:32:47;;;;;;;71.32;40.65;;;5.50;80.20;;;;;;4935917;29;20446;-15
2022/12/22 05:35:14;;;;;;;75.45;42.28;;;5.50;80.30;;;;;;4936122;29;20408;-17
2022/12/22 05:37:40;;;;;;;75.47;42.90;;;5.40;80.10;;;;;;4934880;29;20030;-12
2022/12/22 05:40:06;;;;;;;76.20;44.15;;;5.40;80.10;;;;;;4935893;29;20032;-14
2022/12/22 05:42:35;;;;;;;76.20;44.00;;;5.40;80.10;;;;;;4934550;29;20031;-17
2022/12/22 05:45:17;;;;;;;71.82;43.55;;;5.40;80.90;;;;;;4935349;29;20032;-17
2022/12/22 05:47:45;;;;;;;75.85;43.22;;;5.30;80.40;;;;;;4935645;29;20032;-14
2022/12/22 05:50:12;;;;;;;71.00;41.88;;;5.20;80.30;;;;;;4936322;29;20054;-17
2022/12/22 05:52:39;;;;;;;72.10;40.67;;;5.20;80.20;;;;;;4935908;29;20027;-18
2022/12/22 05:55:06;;;;;;;72.80;42.25;;;5.10;80.20;;;;;;4935469;29;20031;-18
2022/12/22 05:57:32;;;;;;;72.68;39.45;;;5.10;80.30;;;;;;4935607;29;20070;-18
2022/12/22 05:59:58;;;;;;;59.03;35.63;;;5.10;80.30;;;;;;4935765;29;20103;-16
2022/12/22 06:02:24;;;;;;;62.28;34.95;;;5.10;80.30;;;;;;4935491;29;20463;-18
2022/12/22 06:04:50;;;;;;;55.88;32.42;;;5.00;80.40;;;;;;4934127;29;20555;-17
2022/12/22 06:07:17;;;;;;;71.40;40.78;;;5.00;80.50;;;;;;4935761;29;20114;-18
2022/12/22 06:09:43;;;;;;;62.38;38.83;;;5.10;80.60;;;;;;4935851;29;20444;-17
2022/12/22 06:12:09;;;;;;;51.53;31.27;;;5.10;80.50;;;;;;4935767;29;20032;-17
2022/12/22 06:14:35;;;;;;;52.97;29.77;;;5.10;80.50;;;;;;4935320;29;20032;-17
2022/12/22 06:17:01;;;;;;;42.63;27.67;;;5.20;80.50;;;;;;4933972;29;20028;-18
2022/12/22 06:19:27;;;;;;;61.88;33.85;;;5.20;80.50;;;;;;4935422;29;20032;-17
2022/12/22 06:21:53;;;;;;;51.10;29.42;;;5.20;80.50;;;;;;4937984;29;20536;-16
2022/12/22 06:24:19;;;;;;;47.83;30.23;;;5.30;80.40;;;;;;4939361;29;20024;-18
2022/12/22 06:26:45;;;;;;;51.63;30.65;;;5.40;80.40;;;;;;4939756;29;20031;-17
2022/12/22 06:29:11;;;;;;;55.08;30.02;;;5.40;80.30;;;;;;4939666;29;20056;-17
2022/12/22 06:31:37;;;;;;;63.33;36.35;;;5.40;80.10;;;;;;4939150;29;20054;-18
2022/12/22 06:34:03;;;;;;;62.45;34.65;;;5.50;80.10;;;;;;4938981;29;20024;-17
2022/12/22 06:36:29;;;;;;;59.08;33.75;;;5.50;79.90;;;;;;4939033;29;20038;-17
2022/12/22 06:38:55;;;;;;;69.53;40.83;;;5.50;79.80;;;;;;4939137;29;20023;-19
2022/12/22 06:44:05;;;;;;;47.58;30.50;;;5.40;79.70;;;;;;4939194;29;20403;-18
2022/12/22 06:46:31;;;;;;;60.63;35.55;;;5.50;79.80;;;;;;4939093;29;20024;-18
2022/12/22 06:48:57;;;;;;;66.72;38.92;;;5.50;79.60;;;;;;4938933;29;20043;-15
2022/12/22 06:51:23;;;;;;;70.05;41.70;;;5.50;79.50;;;;;;4938820;29;20119;-16
2022/12/22 06:53:49;;;;;;;74.30;41.28;;;5.50;79.70;;;;;;4938988;29;20245;-16
2022/12/22 06:56:15;;;;;;;66.47;38.88;;;5.50;79.70;;;;;;4938700;29;20396;-15
2022/12/22 06:58:41;;;;;;;55.20;32.83;;;5.40;79.70;;;;;;4938560;29;20035;-17
2022/12/22 07:01:07;;;;;;;62.92;37.13;;;5.40;79.60;;;;;;4938567;29;20102;-18
2022/12/22 07:03:33;;;;;;;77.18;42.35;;;5.40;79.70;;;;;;4938753;29;20209;-16
2022/12/22 07:05:59;;;;;;;85.68;47.03;;;5.40;79.70;;;;;;4938871;29;20047;-17
2022/12/22 07:08:25;;;;;;;74.30;39.92;;;5.30;79.60;;;;;;4938805;29;20035;-17
2022/12/22 07:10:57;;;;;;;66.82;37.20;;;5.20;79.70;;;;;;4938340;29;20480;-18
2022/12/22 07:13:26;;;;;;;81.80;44.60;;;5.10;79.90;;;;;;4938391;29;20028;-16
2022/12/22 07:15:52;;;;;;;67.43;37.03;;;5.10;80.00;;;;;;4938334;29;20231;-17
2022/12/22 07:18:18;;;;;;;50.75;31.67;;;5.10;80.10;;;;;;4939148;29;20038;-18
2022/12/22 07:20:44;;;;;;;57.00;33.08;;;5.10;80.20;;;;;;4938444;29;20059;-14
2022/12/22 07:23:11;;;;;;;62.53;37.83;;;5.20;80.30;;;;;;4937871;29;20040;-18
2022/12/22 07:25:37;;;;;;;76.57;41.65;;;5.20;80.20;;;;;;4938531;29;20030;-17
2022/12/22 07:28:05;;;;;;;65.03;36.85;;;5.30;80.10;;;;;;4938507;29;20087;-15
2022/12/22 07:30:32;;;;;;;71.57;39.75;;;5.40;80.00;;;;;;4938029;29;20066;-18
2022/12/22 07:32:58;;;;;;;71.85;40.10;;;5.40;79.80;;;;;;4937130;29;20066;-17
2022/12/22 07:35:24;;;;;;;77.35;42.67;;;5.50;79.90;;;;;;4936825;29;20028;-17
2022/12/22 07:37:50;;;;;;;84.50;46.55;;;5.50;80.00;;;;;;4937801;29;20046;-17
2022/12/22 07:40:16;;;;;;;79.40;46.10;;;5.60;80.00;;;;;;4937990;29;20115;-16
2022/12/22 07:42:45;;;;;;;69.30;39.83;;;5.60;79.80;;;;;;4937820;29;20408;-17
2022/12/22 07:45:16;;;;;;;74.28;43.33;;;5.60;79.90;;;;;;4937603;29;20484;-18
2022/12/22 07:47:44;;;;;;;71.50;41.92;;;5.50;80.10;;;;;;4937783;29;20031;-18
2022/12/22 07:50:23;;;;;;;65.07;37.95;;;5.50;80.10;;;;;;4937683;29;20082;-19
2022/12/22 07:52:58;;;;;;;76.00;44.53;;;5.50;80.00;;;;;;4937457;29;20032;-18
2022/12/22 07:55:26;;;;;;;81.50;44.67;;;5.60;80.00;;;;;;4937660;29;20028;-17
2022/12/22 07:57:53;;;;;;;75.53;43.88;;;5.60;79.90;;;;;;4936292;29;20203;-18
2022/12/22 08:00:19;;;;;;;65.90;38.40;;;5.60;79.90;;;;;;4937641;29;20176;-18
2022/12/22 08:02:53;;;;;;;67.93;40.33;;;5.60;79.80;;;;;;4937226;29;20032;-17
2022/12/22 08:05:20;;;;;;;;;;;5.60;79.80;;;;;;4938220;29;20069;-15
2022/12/22 08:07:48;;;;;;;53.33;31.48;;;5.60;79.70;;;;;;4937670;29;19913;-15
2022/12/22 08:10:14;;;;;;;57.13;34.08;;;5.60;79.80;;;;;;4937465;29;20075;-16
2022/12/22 08:12:40;;;;;;;70.50;42.95;;;5.70;79.70;;;;;;4937208;29;20026;-16
2022/12/22 08:15:07;;;;;;;78.93;42.15;;;5.80;79.60;;;;;;4936889;29;20036;-17
2022/12/22 08:17:34;;;;;;;84.75;47.85;;;5.80;79.60;;;;;;4937200;29;20110;-17
2022/12/22 08:20:00;;;;;;;83.30;46.83;;;5.90;79.60;;;;;;4937348;29;20384;-17
2022/12/22 08:22:28;;;;;;;77.57;42.05;;;5.90;79.40;;;;;;4936647;29;20131;-16
2022/12/22 08:24:55;;;;;;;85.47;49.58;;;6.00;79.20;;;;;;4937068;29;20036;-16
2022/12/22 08:27:41;;;;;;;67.47;40.90;;;6.00;79.30;;;;;;4936923;29;20039;-16
2022/12/22 08:30:08;;;;;;;83.65;49.88;;;6.00;79.30;;;;;;4937053;29;20374;-16
2022/12/22 08:32:36;;;;;;;71.43;43.55;;;6.00;79.20;;;;;;4937224;29;20127;-17
2022/12/22 08:35:04;;;;;;;68.95;39.40;;;6.10;79.20;;;;;;4936586;29;20036;-17
2022/12/22 08:37:34;;;;;;;79.13;44.13;;;6.10;79.30;;;;;;4936883;29;20054;-17
2022/12/22 08:40:03;;;;;;;78.63;45.78;;;6.10;79.30;;;;;;4936735;29;20036;-18
2022/12/22 08:42:30;;;;;;;78.05;47.00;;;6.10;79.20;;;;;;4937031;29;20083;-17
2022/12/22 08:44:55;;;;;;;77.55;46.65;;;6.20;79.10;;;;;;4935463;29;20027;-17
2022/12/22 08:47:22;;;;;;;79.68;45.20;;;6.20;79.20;;;;;;4936451;29;20032;-15
2022/12/22 08:49:49;;;;;;;68.18;41.53;;;6.30;79.30;;;;;;4936736;29;20476;-17
2022/12/22 08:52:15;;;;;;;68.90;43.63;;;6.30;79.20;;;;;;4936830;29;20114;-18
2022/12/22 08:54:41;;;;;;;62.47;38.25;;;6.50;79.30;;;;;;4936592;29;20032;-17
2022/12/22 08:57:08;;;;;;;53.60;34.60;;;6.60;79.30;;;;;;4936370;29;20365;-16
2022/12/22 08:59:34;;;;;;;67.45;39.40;;;6.80;79.20;;;;;;4936428;29;20024;-16
2022/12/22 09:02:03;;;;;;;79.53;45.15;;;6.90;79.10;;;;;;4936222;29;20476;-17
2022/12/22 09:04:31;;;;;;;53.33;33.03;;;7.10;78.90;;;;;;4936093;29;20488;-17
2022/12/22 09:06:58;;;;;;;79.25;46.33;;;7.30;78.70;;;;;;4935950;29;20024;-17
2022/12/22 09:09:24;;;;;;;73.85;44.55;;;7.50;77.90;;;;;;4936474;29;20028;-17
2022/12/22 09:11:50;;;;;;;89.45;54.03;;;7.70;77.90;;;;;;4936035;29;20055;-17
2022/12/22 09:14:16;;;;;;;61.85;39.90;;;7.80;77.50;;;;;;4936084;29;20074;-16
2022/12/22 09:16:43;;;;;;;58.00;37.17;;;7.90;77.30;;;;;;4935884;29;20050;-18
2022/12/22 09:19:09;;;;;;;206.13;83.38;;;8.00;77.30;;;;;;4935661;29;20484;-17
2022/12/22 09:21:35;;;;;;;109.55;55.00;;;8.10;76.80;;;;;;4935621;29;20144;-13
2022/12/22 09:24:03;;;;;;;79.03;46.15;;;8.10;76.20;;;;;;4935835;29;20028;-17
2022/12/22 09:26:31;;;;;;;75.55;44.67;;;8.00;76.20;;;;;;4935681;29;20511;-13
2022/12/22 09:28:57;;;;;;;81.07;43.95;;;8.00;76.70;;;;;;4935560;29;20390;-13
2022/12/22 09:31:25;;;;;;;92.00;47.65;;;8.10;76.70;;;;;;4934416;29;20032;-13
2022/12/22 09:33:51;;;;;;;77.03;40.45;;;8.10;76.50;;;;;;4935790;29;20036;-14
2022/12/22 09:36:21;;;;;;;65.75;38.22;;;8.20;76.20;;;;;;4935566;29;20480;-17
2022/12/22 09:38:47;;;;;;;65.22;36.95;;;8.20;75.80;;;;;;4935719;29;20027;-15
2022/12/22 09:41:50;;;;;;;66.20;38.28;;;8.10;76.30;;;;;;4934588;29;20039;-14
2022/12/22 09:44:43;;;;;;;64.70;37.00;;;8.10;76.30;;;;;;4932345;29;20409;-17
2022/12/22 09:47:26;;;;;;;63.78;34.03;;;7.90;76.40;;;;;;4929049;29;20059;-16
2022/12/22 09:49:55;;;;;;;63.22;36.88;;;7.90;76.60;;;;;;4935431;29;20023;-16
2022/12/22 09:52:33;;;;;;;67.70;38.17;;;8.00;76.40;;;;;;4935385;29;20026;-16
2022/12/22 09:55:04;;;;;;;63.67;36.58;;;8.00;76.60;;;;;;4935671;29;20032;-15
2022/12/22 09:57:31;;;;;;;55.50;30.80;;;7.90;76.20;;;;;;4935246;29;20098;-18
2022/12/22 10:00:05;;;;;;;66.10;37.22;;;7.90;76.40;;;;;;4935311;29;20027;-17
2022/12/22 10:02:56;;;;;;;63.33;36.05;;;8.00;76.40;;;;;;4935435;29;20032;-17
2022/12/22 10:05:51;;;;;;;60.17;32.97;;;8.10;76.50;;;;;;4935497;29;20035;-15
2022/12/22 10:08:28;;;;;;;62.00;34.55;;;8.20;76.50;;;;;;4927304;29;20043;-16
2022/12/22 10:10:55;;;;;;;65.40;35.90;;;8.30;76.50;;;;;;4934984;29;20020;-16
2022/12/22 10:13:22;;;;;;;53.17;31.77;;;8.30;76.20;;;;;;4934975;29;20032;-15
2022/12/22 10:15:48;;;;;;;69.32;37.90;;;8.30;75.60;;;;;;4935125;29;20027;-15
2022/12/22 10:18:17;;;;;;;67.50;37.42;;;8.40;76.20;;;;;;4935502;29;20091;-14
2022/12/22 10:21:11;;;;;;;46.00;28.80;;;8.50;76.10;;;;;;4935142;29;20036;-14
2022/12/22 10:23:42;;;;;;;52.88;29.90;;;8.50;76.10;;;;;;4934883;29;20035;-18
2022/12/22 10:26:31;;;;;;;50.05;29.38;;;8.70;76.10;;;;;;4935202;29;20570;-17
2022/12/22 10:29:06;;;;;;;57.47;32.75;;;8.80;76.10;;;;;;4934292;29;20499;-17
2022/12/22 10:31:35;;;;;;;64.38;34.67;;;9.00;75.90;;;;;;4935357;29;20023;-16
2022/12/22 10:34:16;;;;;;;67.50;38.55;;;9.10;75.40;;;;;;4935202;29;20028;-16
2022/12/22 10:36:47;;;;;;;63.45;37.90;;;9.30;74.90;;;;;;4935286;29;20066;-15
2022/12/22 10:39:32;;;;;;;62.28;33.88;;;9.40;74.70;;;;;;4935578;29;20082;-15
2022/12/22 10:42:06;;;;;;;65.43;36.33;;;9.50;74.60;;;;;;4934928;29;20095;-17
2022/12/22 10:44:34;;;;;;;74.28;41.17;;;9.50;74.40;;;;;;4934966;29;20090;-16
2022/12/22 10:47:10;;;;;;;70.68;39.45;;;9.60;74.40;;;;;;4934575;29;20063;-16
2022/12/22 10:49:44;;;;;;;64.00;37.75;;;9.60;74.20;;;;;;4935275;29;20024;-15
2022/12/22 10:52:21;;;;;;;74.70;40.78;;;9.60;74.20;;;;;;4934017;29;20097;-15
2022/12/22 10:54:47;;;;;;;79.35;44.65;;;9.50;73.90;;;;;;4934726;29;20042;-15
2022/12/22 10:57:13;;;;;;;73.88;41.55;;;9.50;74.30;;;;;;4935263;29;20421;-14
2022/12/22 10:59:48;;;;;;;84.15;44.78;;;9.50;74.20;;;;;;4934487;29;20115;-12
2022/12/22 11:02:36;;;;;;;70.72;42.58;;;9.50;74.20;;;;;;4935066;29;20106;-15
2022/12/22 11:05:10;;;;;;;73.00;41.40;;;9.40;74.40;;;;;;4934814;29;20035;-16
2022/12/22 11:07:37;;;;;;;;;;;9.40;74.50;;;;;;4935674;29;20050;-17
2022/12/22 11:10:16;;;;;;;68.85;39.50;;;9.50;74.10;;;;;;4938288;29;20367;-16
2022/12/22 11:13:03;;;;;;;70.20;38.72;;;9.50;74.00;;;;;;4938003;29;20039;-17
2022/12/22 11:15:52;;;;;;;68.38;40.15;;;9.50;74.30;;;;;;4938395;29;20040;-15
2022/12/22 11:18:47;;;;;;;73.82;40.35;;;9.60;74.30;;;;;;4938782;29;20069;-15
2022/12/22 11:21:27;;;;;;;63.58;34.13;;;9.70;74.20;;;;;;4879675;29;20052;-17
2022/12/22 11:24:20;;;;;;;74.72;40.55;;;9.80;74.00;;;;;;4879413;29;20037;-15
2022/12/22 11:27:23;;;;;;;62.03;35.77;;;9.90;73.70;;;;;;4879290;29;20040;-18
2022/12/22 11:30:01;;;;;;;63.92;35.50;;;10.00;74.10;;;;;;4879316;29;20025;-15
2022/12/22 11:33:01;;;;;;;72.35;39.15;;;10.20;73.70;;;;;;4879254;29;20569;-16
2022/12/22 11:35:56;;;;;;;77.85;40.47;;;10.30;73.30;;;;;;4879244;29;20036;-17
2022/12/22 11:38:44;;;;;;;65.43;35.95;;;10.40;73.20;;;;;;4875056;29;20029;-16
2022/12/22 11:41:21;;;;;;;50.88;29.65;;;10.40;72.70;;;;;;4878911;29;20398;-15
2022/12/22 11:44:08;;;;;;;58.28;33.70;;;10.40;73.10;;;;;;4879094;29;20522;-13
2022/12/22 11:46:40;;;;;;;62.53;35.25;;;10.40;73.30;;;;;;4879283;29;20033;-15
2022/12/22 11:49:38;;;;;;;58.67;33.47;;;10.50;73.00;;;;;;4878649;29;20538;-16
2022/12/22 11:52:28;;;;;;;59.30;31.35;;;10.80;72.70;;;;;;4879123;29;20033;-17
2022/12/22 11:55:28;;;;;;;58.05;32.42;;;11.00;72.70;;;;;;4878775;29;20037;-16
2022/12/22 11:58:03;;;;;;;61.13;34.30;;;11.20;72.20;;;;;;4915069;29;20065;-13
2022/12/22 12:00:35;;;;;;;72.93;41.10;;;11.30;71.80;;;;;;4937445;29;20035;-15
2022/12/22 12:03:45;;;;;;;70.82;40.20;;;11.50;69.40;;;;;;4935718;29;20027;-13
2022/12/22 12:06:32;;;;;;;71.53;39.03;;;11.90;69.10;;;;;;4937301;29;20059;-15
2022/12/22 12:09:13;;;;;;;71.28;37.92;;;12.10;68.80;;;;;;4937050;29;20484;-16
2022/12/22 12:11:46;;;;;;;70.88;38.42;;;12.30;66.00;;;;;;4937185;29;20036;-17
2022/12/22 12:14:39;;;;;;;68.45;39.05;;;12.30;66.10;;;;;;4937345;29;20050;-16
2022/12/22 12:17:13;;;;;;;70.50;38.47;;;12.40;65.80;;;;;;4928947;29;20529;-18
2022/12/22 12:19:57;;;;;;;;;;;12.60;65.10;;;;;;4937348;29;20027;-15
2022/12/22 12:22:28;;;;;;;75.32;38.63;;;12.70;65.10;;;;;;4936817;29;19919;-16
2022/12/22 12:25:20;;;;;;;70.30;38.40;;;12.90;65.00;;;;;;4936730;29;20503;-15
2022/12/22 12:27:57;;;;;;;69.88;38.00;;;13.10;64.70;;;;;;4934128;29;20036;-17
2022/12/22 12:30:24;;;;;;;64.18;35.72;;;13.10;64.90;;;;;;4936924;29;20118;-17
2022/12/22 12:32:53;;;;;;;64.80;36.72;;;13.10;64.70;;;;;;4936468;29;20036;-16
2022/12/22 12:35:29;;;;;;;56.15;32.47;;;13.10;65.50;;;;;;4936634;29;20055;-16
2022/12/22 12:38:05;;;;;;;62.58;35.70;;;13.10;65.90;;;;;;4936973;29;20055;-17
2022/12/22 12:40:54;;;;;;;66.25;37.72;;;13.20;65.50;;;;;;4936851;29;20031;-16
2022/12/22 12:43:22;;;;;;;55.83;31.70;;;13.30;65.20;;;;;;4935315;29;20384;-15
2022/12/22 12:45:49;;;;;;;65.40;36.53;;;13.20;65.60;;;;;;4936645;29;20067;-17
2022/12/22 12:48:23;;;;;;;68.88;36.60;;;13.30;64.20;;;;;;4936764;29;20038;-17
2022/12/22 12:50:50;;;;;;;67.82;37.40;;;13.40;63.30;;;;;;4936371;29;20392;-17
2022/12/22 12:53:21;;;;;;;70.72;37.58;;;13.50;63.40;;;;;;4936302;29;20035;-16
2022/12/22 12:55:53;;;;;;;67.78;37.72;;;13.70;61.60;;;;;;4936357;29;20161;-18
2022/12/22 12:58:37;;;;;;;68.30;37.13;;;13.80;61.00;;;;;;4936376;29;20024;-18
2022/12/22 13:01:28;;;;;;;;;;;13.80;62.00;;;;;;4936527;29;20039;-16
2022/12/22 13:03:54;;;;;;;66.97;36.97;;;13.90;62.50;;;;;;4936056;29;19911;-14
2022/12/22 13:06:45;;;;;;;64.60;37.58;;;13.90;62.50;;;;;;4936158;29;20388;-16
2022/12/22 13:09:17;;;;;;;62.25;36.17;;;14.10;62.30;;;;;;4935892;29;20123;-16
2022/12/22 13:11:43;;;;;;;63.55;37.05;;;14.20;62.40;;;;;;4936710;29;20043;-14
2022/12/22 13:14:09;;;;;;;65.38;35.13;;;14.40;62.20;;;;;;4936307;29;20603;-15
2022/12/22 13:16:37;;;;;;;59.88;33.88;;;14.40;61.90;;;;;;4936276;29;20123;-16
2022/12/22 13:19:11;;;;;;;60.78;34.08;;;14.50;61.70;;;;;;4936156;29;20039;-15
2022/12/22 13:21:42;;;;;;;57.83;33.72;;;14.50;60.90;;;;;;4934328;29;20499;-15
2022/12/22 13:24:21;;;;;;;58.45;32.85;;;14.50;60.50;;;;;;4935859;29;20027;-14
2022/12/22 13:26:50;;;;;;;55.65;30.92;;;14.20;61.00;;;;;;4936100;29;20050;-17
2022/12/22 13:29:23;;;;;;;57.30;31.15;;;13.80;61.80;;;;;;4936086;29;20024;-13
2022/12/22 13:32:00;;;;;;;54.17;29.67;;;13.50;62.60;;;;;;4935380;29;20032;-14
2022/12/22 13:34:29;;;;;;;51.85;28.95;;;13.10;63.30;;;;;;4935571;29;20035;-13
2022/12/22 13:37:03;;;;;;;54.63;31.83;;;12.80;64.40;;;;;;4935420;29;20027;-16
2022/12/22 13:39:29;;;;;;;73.82;36.70;;;12.60;65.20;;;;;;4936154;29;20432;-18
2022/12/22 13:41:56;;;;;;;55.95;30.77;;;12.40;65.80;;;;;;4934321;29;20175;-16
2022/12/22 13:44:30;;;;;;;56.00;30.13;;;12.10;66.10;;;;;;4935642;29;20078;-18
2022/12/22 13:47:06;;;;;;;62.53;34.05;;;11.90;66.80;;;;;;4935371;29;20028;-17
2022/12/22 13:49:34;;;;;;;46.03;26.67;;;11.80;67.40;;;;;;4935806;29;20440;-17
2022/12/22 13:52:01;;;;;;;49.65;29.58;;;11.70;67.90;;;;;;4935732;29;20122;-16
2022/12/22 13:54:36;;;;;;;57.08;33.42;;;11.60;68.20;;;;;;4935357;29;20480;-16
2022/12/22 13:57:04;;;;;;;57.03;32.38;;;11.60;68.50;;;;;;4935402;29;20119;-17
2022/12/22 13:59:35;;;;;;;49.67;27.63;;;11.60;68.70;;;;;;4935243;29;20075;-17
2022/12/22 14:02:15;;;;;;;54.78;31.38;;;11.60;68.70;;;;;;4935324;29;20032;-15
2022/12/22 14:04:43;;;;;;;51.47;28.35;;;11.70;68.70;;;;;;4935622;29;20032;-18
2022/12/22 14:07:14;;;;;;;61.60;33.70;;;11.60;68.50;;;;;;4935285;29;20027;-18
2022/12/22 14:09:45;;;;;;;48.65;28.95;;;11.70;68.60;;;;;;4935571;29;20106;-17
2022/12/22 14:12:26;;;;;;;70.38;37.78;;;11.70;68.70;;;;;;4935579;29;20075;-17
2022/12/22 14:14:55;;;;;;;58.53;31.90;;;11.80;68.70;;;;;;4935284;29;20073;-18
2022/12/22 14:17:33;;;;;;;55.60;31.83;;;11.70;68.50;;;;;;4935493;29;20048;-16
2022/12/22 14:20:08;;;;;;;53.00;30.48;;;11.70;68.70;;;;;;4935372;29;20039;-16
2022/12/22 14:23:04;;;;;;;47.58;27.63;;;11.60;68.80;;;;;;4934930;29;20417;-13
2022/12/22 14:25:35;;;;;;;59.33;32.20;;;11.60;69.10;;;;;;4876427;29;20101;-14
2022/12/22 14:28:03;;;;;;;53.50;29.63;;;11.40;69.10;;;;;;4876590;29;20451;-15
2022/12/22 14:30:37;;;;;;;99.28;68.10;;;11.30;69.20;;;;;;4876375;29;20033;-16
2022/12/22 14:33:26;;;;;;;;;;;11.20;69.40;;;;;;4861280;29;20049;-15
2022/12/22 14:36:16;;;;;;;51.38;29.90;;;11.10;69.20;;;;;;4862851;29;19911;-13
2022/12/22 14:39:07;;;;;;;57.03;30.73;;;10.90;69.80;;;;;;4877062;29;20033;-16
2022/12/22 14:41:51;;;;;;;50.83;30.23;;;10.80;70.20;;;;;;4876513;29;20112;-14
2022/12/22 14:44:20;;;;;;;53.83;30.55;;;10.70;70.70;;;;;;4880006;29;20551;-15
2022/12/22 14:47:02;;;;;;;61.72;33.53;;;10.60;70.70;;;;;;4880065;29;20032;-17
2022/12/22 14:49:28;;;;;;;58.03;33.70;;;10.50;70.60;;;;;;4865027;29;20029;-17
2022/12/22 14:52:13;;;;;;;59.10;34.67;;;10.40;70.50;;;;;;4879814;29;20521;-17
2022/12/22 14:54:39;;;;;;;62.10;33.08;;;10.30;70.50;;;;;;4880142;29;20101;-14
2022/12/22 14:57:12;;;;;;;61.63;32.80;;;10.20;70.70;;;;;;4879627;29;20060;-15
2022/12/22 14:59:38;;;;;;;62.42;35.50;;;10.10;70.70;;;;;;4879758;29;20036;-17
2022/12/22 15:02:28;;;;;;;120.25;56.78;;;10.00;70.80;;;;;;4903916;29;20040;-15
2022/12/22 15:05:08;;;;;;;376.08;158.45;;;9.80;71.30;;;;;;4938513;29;20027;-16
2022/12/22 15:07:51;;;;;;;165.25;71.18;;;9.50;71.50;;;;;;4938290;29;20028;-14
2022/12/22 15:10:17;;;;;;;113.38;53.03;;;9.30;72.00;;;;;;4938588;29;20114;-18
2022/12/22 15:12:44;;;;;;;117.30;51.03;;;9.00;72.30;;;;;;4938637;29;20442;-16
2022/12/22 15:15:21;;;;;;;97.30;45.95;;;8.90;72.80;;;;;;4938056;29;20102;-17
2022/12/22 15:17:49;;;;;;;95.20;45.60;;;8.80;73.20;;;;;;4938352;29;20035;-17
2022/12/22 15:20:19;;;;;;;95.32;44.50;;;8.70;73.40;;;;;;4938493;29;20038;-15
2022/12/22 15:22:45;;;;;;;75.68;37.47;;;8.60;73.60;;;;;;4938055;29;20056;-17
2022/12/22 15:25:13;;;;;;;82.70;38.40;;;8.50;73.80;;;;;;4938174;29;20023;-16
2022/12/22 15:27:39;;;;;;;72.20;34.22;;;8.40;74.00;;;;;;4938080;29;20028;-17
2022/12/22 15:30:07;;;;;;;76.43;34.33;;;8.30;74.00;;;;;;4937887;29;20038;-17
2022/12/22 15:32:33;;;;;;;68.03;33.97;;;8.20;74.20;;;;;;4938067;29;20035;-16
2022/12/22 15:35:02;;;;;;;73.18;35.08;;;8.00;74.40;;;;;;4937932;29;20036;-17
2022/12/22 15:37:28;;;;;;;51.03;28.20;;;7.90;74.60;;;;;;4937924;29;20476;-16
2022/12/22 15:39:54;;;;;;;97.72;40.33;;;7.80;74.90;;;;;;4938095;29;20040;-15
2022/12/22 15:42:20;;;;;;;71.82;33.60;;;7.70;75.10;;;;;;4936555;29;20075;-16
2022/12/22 15:44:46;;;;;;;57.72;30.75;;;7.60;75.30;;;;;;4937832;29;20055;-14
2022/12/22 15:47:12;;;;;;;56.17;30.50;;;7.50;75.50;;;;;;4937692;29;20028;-17
2022/12/22 15:49:38;;;;;;;70.60;33.75;;;7.50;75.70;;;;;;4938196;29;20043;-17
2022/12/22 15:52:07;;;;;;;70.18;32.00;;;7.50;75.80;;;;;;4937546;29;20035;-17
2022/12/22 15:54:35;;;;;;;62.67;30.20;;;7.50;75.80;;;;;;4937437;29;20035;-16
2022/12/22 15:57:01;;;;;;;60.63;32.28;;;7.50;75.80;;;;;;4937391;29;20415;-15
2022/12/22 15:59:28;;;;;;;69.90;34.80;;;7.40;75.70;;;;;;4937550;29;20026;-17
2022/12/22 16:02:00;;;;;;;64.97;32.38;;;7.50;75.70;;;;;;4937405;29;20046;-18
2022/12/22 16:04:27;;;;;;;65.97;32.88;;;7.40;75.70;;;;;;4937380;29;20476;-17
2022/12/22 16:06:53;;;;;;;65.22;33.85;;;7.30;75.80;;;;;;4937173;29;20046;-16
2022/12/22 16:09:25;;;;;;;70.78;35.80;;;7.30;76.00;;;;;;4937406;29;20035;-17
2022/12/22 16:11:51;;;;;;;63.47;33.17;;;7.30;76.20;;;;;;4937323;29;20071;-15
2022/12/22 16:14:19;;;;;;;76.32;37.80;;;7.20;76.40;;;;;;4937408;29;20032;-17
2022/12/22 16:16:47;;;;;;;54.13;28.35;;;7.10;76.70;;;;;;4937406;29;20032;-15
2022/12/22 16:19:17;;;;;;;50.28;27.20;;;7.10;76.50;;;;;;4937005;29;20036;-17
2022/12/22 16:21:46;;;;;;;68.72;34.90;;;7.10;76.50;;;;;;4936908;29;20023;-14
2022/12/22 16:24:33;;;;;;;74.32;38.95;;;7.20;76.70;;;;;;4937828;29;20059;-18
2022/12/22 16:27:01;;;;;;;76.10;38.55;;;7.40;77.00;;;;;;4936802;29;20036;-17
2022/12/22 16:29:27;;;;;;;74.45;37.78;;;7.40;76.80;;;;;;4936852;29;20035;-17
2022/12/22 16:32:12;;;;;;;82.45;43.60;;;7.50;76.70;;;;;;4936860;29;20035;-17
2022/12/22 16:34:38;;;;;;;64.55;34.80;;;7.50;76.60;;;;;;4936925;29;20130;-17